sensor_id;sensor_type;location;lat;lon;timestamp;temperature;humidity
9271;DHT22;4673;53.458;9.940;2023-08-06T00:02:19;15.00;92.60
9271;DHT22;4673;53.458;9.940;2023-08-06T00:04:45;14.90;92.80
9271;DHT22;4673;53.458;9.940;2023-08-06T00:07:10;14.90;93.10
9271;DHT22;4673;53.458;9.940;2023-08-06T00:09:36;14.90;93.40
9271;DHT22;4673;53.458;9.940;2023-08-06T00:12:02;14.80;94.00
9271;DHT22;4673;53.458;9.940;2023-08-06T00:14:28;14.80;94.20
9271;DHT22;4673;53.458;9.940;2023-08-06T00:16:53;14.80;94.60
9271;DHT22;4673;53.458;9.940;2023-08-06T00:19:19;14.80;94.90
9271;DHT22;4673;53.458;9.940;2023-08-06T00:21:44;14.90;95.50
9271;DHT22;4673;53.458;9.940;2023-08-06T00:24:10;14.90;95.90
9271;DHT22;4673;53.458;9.940;2023-08-06T00:26:36;14.90;96.20
9271;DHT22;4673;53.458;9.940;2023-08-06T00:29:01;15.00;96.60
9271;DHT22;4673;53.458;9.940;2023-08-06T00:31:27;15.00;96.90
9271;DHT22;4673;53.458;9.940;2023-08-06T00:33:52;15.00;97.30
9271;DHT22;4673;53.458;9.940;2023-08-06T00:36:18;15.10;97.70
9271;DHT22;4673;53.458;9.940;2023-08-06T00:38:44;15.10;97.80
9271;DHT22;4673;53.458;9.940;2023-08-06T00:41:10;15.10;98.00
9271;DHT22;4673;53.458;9.940;2023-08-06T00:43:35;15.10;98.10
9271;DHT22;4673;53.458;9.940;2023-08-06T00:46:01;15.10;98.20
9271;DHT22;4673;53.458;9.940;2023-08-06T00:48:27;15.10;98.30
9271;DHT22;4673;53.458;9.940;2023-08-06T00:50:53;15.00;98.20
9271;DHT22;4673;53.458;9.940;2023-08-06T00:53:18;15.00;98.30
9271;DHT22;4673;53.458;9.940;2023-08-06T00:55:44;15.00;98.50
9271;DHT22;4673;53.458;9.940;2023-08-06T00:58:11;15.00;98.70
9271;DHT22;4673;53.458;9.940;2023-08-06T01:00:37;15.00;98.70
9271;DHT22;4673;53.458;9.940;2023-08-06T01:03:03;15.10;99.00
9271;DHT22;4673;53.458;9.940;2023-08-06T01:05:29;15.10;99.10
9271;DHT22;4673;53.458;9.940;2023-08-06T01:13:41;15.00;99.10
9271;DHT22;4673;53.458;9.940;2023-08-06T01:16:09;15.00;99.20
9271;DHT22;4673;53.458;9.940;2023-08-06T01:18:35;15.00;99.20
9271;DHT22;4673;53.458;9.940;2023-08-06T01:21:02;14.90;99.10
9271;DHT22;4673;53.458;9.940;2023-08-06T01:23:28;14.90;99.20
9271;DHT22;4673;53.458;9.940;2023-08-06T01:31:31;15.00;99.70
9271;DHT22;4673;53.458;9.940;2023-08-06T01:34:01;15.00;99.60
9271;DHT22;4673;53.458;9.940;2023-08-06T01:36:28;15.00;99.60
9271;DHT22;4673;53.458;9.940;2023-08-06T01:38:55;14.90;99.60
9271;DHT22;4673;53.458;9.940;2023-08-06T01:41:22;14.90;99.70
9271;DHT22;4673;53.458;9.940;2023-08-06T01:43:48;15.00;99.90
9271;DHT22;4673;53.458;9.940;2023-08-06T01:46:14;15.00;99.90
9271;DHT22;4673;53.458;9.940;2023-08-06T01:48:39;15.00;99.90
9271;DHT22;4673;53.458;9.940;2023-08-06T01:51:05;15.00;99.90
9271;DHT22;4673;53.458;9.940;2023-08-06T01:53:31;15.00;99.90
9271;DHT22;4673;53.458;9.940;2023-08-06T01:55:58;15.00;99.90
9271;DHT22;4673;53.458;9.940;2023-08-06T01:58:23;14.90;99.90
9271;DHT22;4673;53.458;9.940;2023-08-06T02:00:49;15.00;99.90
9271;DHT22;4673;53.458;9.940;2023-08-06T02:03:15;14.90;99.90
9271;DHT22;4673;53.458;9.940;2023-08-06T02:05:41;14.90;99.90
9271;DHT22;4673;53.458;9.940;2023-08-06T02:08:06;14.90;99.90
9271;DHT22;4673;53.458;9.940;2023-08-06T02:10:32;14.90;99.80
9271;DHT22;4673;53.458;9.940;2023-08-06T02:12:58;14.80;99.70
9271;DHT22;4673;53.458;9.940;2023-08-06T02:15:23;14.80;99.80
9271;DHT22;4673;53.458;9.940;2023-08-06T02:17:49;14.80;99.80
9271;DHT22;4673;53.458;9.940;2023-08-06T02:20:15;14.90;99.90
9271;DHT22;4673;53.458;9.940;2023-08-06T02:22:40;14.90;99.90
9271;DHT22;4673;53.458;9.940;2023-08-06T02:25:06;14.80;99.90
9271;DHT22;4673;53.458;9.940;2023-08-06T02:27:32;14.80;99.80
9271;DHT22;4673;53.458;9.940;2023-08-06T02:29:57;14.80;99.90
9271;DHT22;4673;53.458;9.940;2023-08-06T02:32:23;14.80;99.90
9271;DHT22;4673;53.458;9.940;2023-08-06T02:34:49;14.80;99.90
9271;DHT22;4673;53.458;9.940;2023-08-06T02:37:14;14.80;99.90
9271;DHT22;4673;53.458;9.940;2023-08-06T02:39:40;14.80;99.90
9271;DHT22;4673;53.458;9.940;2023-08-06T02:42:06;14.80;99.90
9271;DHT22;4673;53.458;9.940;2023-08-06T02:44:33;14.80;99.90
9271;DHT22;4673;53.458;9.940;2023-08-06T02:46:59;14.70;99.90
9271;DHT22;4673;53.458;9.940;2023-08-06T02:49:25;14.80;99.90
9271;DHT22;4673;53.458;9.940;2023-08-06T02:51:50;14.80;99.90
9271;DHT22;4673;53.458;9.940;2023-08-06T02:54:17;14.70;99.90
9271;DHT22;4673;53.458;9.940;2023-08-06T02:56:44;14.70;99.90
9271;DHT22;4673;53.458;9.940;2023-08-06T02:59:10;14.70;99.90
9271;DHT22;4673;53.458;9.940;2023-08-06T03:01:36;14.70;99.90
9271;DHT22;4673;53.458;9.940;2023-08-06T03:04:02;14.80;99.90
9271;DHT22;4673;53.458;9.940;2023-08-06T03:06:27;14.80;99.90
9271;DHT22;4673;53.458;9.940;2023-08-06T03:08:53;14.80;99.90
9271;DHT22;4673;53.458;9.940;2023-08-06T03:11:18;14.70;99.90
9271;DHT22;4673;53.458;9.940;2023-08-06T03:13:44;14.70;99.90
9271;DHT22;4673;53.458;9.940;2023-08-06T03:16:10;14.70;99.90
9271;DHT22;4673;53.458;9.940;2023-08-06T03:18:35;14.80;99.90
9271;DHT22;4673;53.458;9.940;2023-08-06T03:21:04;14.80;99.90
9271;DHT22;4673;53.458;9.940;2023-08-06T03:23:30;14.80;99.90
9271;DHT22;4673;53.458;9.940;2023-08-06T03:25:56;14.80;99.90
9271;DHT22;4673;53.458;9.940;2023-08-06T03:28:21;14.80;99.90
9271;DHT22;4673;53.458;9.940;2023-08-06T03:30:47;14.80;99.90
9271;DHT22;4673;53.458;9.940;2023-08-06T03:33:13;14.80;99.90
9271;DHT22;4673;53.458;9.940;2023-08-06T03:35:39;14.80;99.90
9271;DHT22;4673;53.458;9.940;2023-08-06T03:38:04;14.80;99.90
9271;DHT22;4673;53.458;9.940;2023-08-06T03:40:30;14.80;99.90
9271;DHT22;4673;53.458;9.940;2023-08-06T03:42:56;14.90;99.90
9271;DHT22;4673;53.458;9.940;2023-08-06T03:45:21;14.80;99.90
9271;DHT22;4673;53.458;9.940;2023-08-06T03:47:47;14.80;99.90
9271;DHT22;4673;53.458;9.940;2023-08-06T03:50:13;14.80;99.90
9271;DHT22;4673;53.458;9.940;2023-08-06T03:52:39;14.80;99.90
9271;DHT22;4673;53.458;9.940;2023-08-06T03:55:04;14.80;99.90
9271;DHT22;4673;53.458;9.940;2023-08-06T03:57:30;14.80;99.90
9271;DHT22;4673;53.458;9.940;2023-08-06T03:59:56;14.80;99.90
9271;DHT22;4673;53.458;9.940;2023-08-06T04:02:22;14.70;99.90
9271;DHT22;4673;53.458;9.940;2023-08-06T04:04:47;14.70;99.90
9271;DHT22;4673;53.458;9.940;2023-08-06T04:07:13;14.80;99.90
9271;DHT22;4673;53.458;9.940;2023-08-06T04:09:59;14.80;99.90
9271;DHT22;4673;53.458;9.940;2023-08-06T04:12:26;14.80;99.90
9271;DHT22;4673;53.458;9.940;2023-08-06T04:14:52;14.70;99.90
9271;DHT22;4673;53.458;9.940;2023-08-06T04:17:19;14.70;99.90
9271;DHT22;4673;53.458;9.940;2023-08-06T04:19:51;14.80;99.90
9271;DHT22;4673;53.458;9.940;2023-08-06T04:22:18;14.80;99.90
9271;DHT22;4673;53.458;9.940;2023-08-06T04:24:44;14.80;99.90
9271;DHT22;4673;53.458;9.940;2023-08-06T04:27:10;14.80;99.90
9271;DHT22;4673;53.458;9.940;2023-08-06T04:29:36;14.90;99.90
9271;DHT22;4673;53.458;9.940;2023-08-06T04:32:05;14.90;99.90
9271;DHT22;4673;53.458;9.940;2023-08-06T04:34:30;14.90;99.90
9271;DHT22;4673;53.458;9.940;2023-08-06T04:36:56;14.90;99.90
9271;DHT22;4673;53.458;9.940;2023-08-06T04:39:21;14.90;99.90
9271;DHT22;4673;53.458;9.940;2023-08-06T04:41:47;15.00;99.90
9271;DHT22;4673;53.458;9.940;2023-08-06T04:44:13;14.90;99.90
9271;DHT22;4673;53.458;9.940;2023-08-06T04:46:38;14.90;99.90
9271;DHT22;4673;53.458;9.940;2023-08-06T04:49:04;15.00;99.90
9271;DHT22;4673;53.458;9.940;2023-08-06T04:51:29;15.00;99.90
9271;DHT22;4673;53.458;9.940;2023-08-06T04:53:57;14.90;99.90
9271;DHT22;4673;53.458;9.940;2023-08-06T04:56:23;15.00;99.90
9271;DHT22;4673;53.458;9.940;2023-08-06T04:58:48;14.90;99.90
9271;DHT22;4673;53.458;9.940;2023-08-06T05:01:14;15.00;99.90
9271;DHT22;4673;53.458;9.940;2023-08-06T05:03:40;15.00;99.90
9271;DHT22;4673;53.458;9.940;2023-08-06T05:06:05;15.10;99.90
9271;DHT22;4673;53.458;9.940;2023-08-06T05:08:31;15.10;99.90
9271;DHT22;4673;53.458;9.940;2023-08-06T05:10:57;15.00;99.90
9271;DHT22;4673;53.458;9.940;2023-08-06T05:13:22;15.00;99.90
9271;DHT22;4673;53.458;9.940;2023-08-06T05:15:48;15.10;99.90
9271;DHT22;4673;53.458;9.940;2023-08-06T05:18:14;15.00;99.90
9271;DHT22;4673;53.458;9.940;2023-08-06T05:20:41;15.10;99.90
9271;DHT22;4673;53.458;9.940;2023-08-06T05:23:07;15.10;99.90
9271;DHT22;4673;53.458;9.940;2023-08-06T05:25:36;15.10;99.90
9271;DHT22;4673;53.458;9.940;2023-08-06T05:28:02;15.20;99.90
9271;DHT22;4673;53.458;9.940;2023-08-06T05:30:28;15.30;99.90
9271;DHT22;4673;53.458;9.940;2023-08-06T05:32:54;15.30;99.90
9271;DHT22;4673;53.458;9.940;2023-08-06T05:35:21;15.40;99.90
9271;DHT22;4673;53.458;9.940;2023-08-06T05:37:47;15.40;99.90
9271;DHT22;4673;53.458;9.940;2023-08-06T05:40:13;15.50;99.90
9271;DHT22;4673;53.458;9.940;2023-08-06T05:42:39;15.50;99.90
9271;DHT22;4673;53.458;9.940;2023-08-06T05:45:05;15.50;99.90
9271;DHT22;4673;53.458;9.940;2023-08-06T05:47:31;15.60;99.50
9271;DHT22;4673;53.458;9.940;2023-08-06T05:49:56;15.60;98.90
9271;DHT22;4673;53.458;9.940;2023-08-06T05:52:22;15.60;98.30
9271;DHT22;4673;53.458;9.940;2023-08-06T05:54:47;15.70;98.10
9271;DHT22;4673;53.458;9.940;2023-08-06T05:57:13;15.70;97.70
9271;DHT22;4673;53.458;9.940;2023-08-06T05:59:40;15.90;97.50
9271;DHT22;4673;53.458;9.940;2023-08-06T06:02:06;15.90;96.80
9271;DHT22;4673;53.458;9.940;2023-08-06T06:04:32;15.90;96.30
9271;DHT22;4673;53.458;9.940;2023-08-06T06:06:57;15.90;95.50
9271;DHT22;4673;53.458;9.940;2023-08-06T06:09:23;15.90;94.60
9271;DHT22;4673;53.458;9.940;2023-08-06T06:11:48;16.00;93.90
9271;DHT22;4673;53.458;9.940;2023-08-06T06:14:17;16.00;93.60
9271;DHT22;4673;53.458;9.940;2023-08-06T06:16:43;16.00;93.30
9271;DHT22;4673;53.458;9.940;2023-08-06T06:19:08;16.10;93.10
9271;DHT22;4673;53.458;9.940;2023-08-06T06:21:34;16.00;91.90
9271;DHT22;4673;53.458;9.940;2023-08-06T06:24:00;16.00;91.60
9271;DHT22;4673;53.458;9.940;2023-08-06T06:26:25;16.00;91.00
9271;DHT22;4673;53.458;9.940;2023-08-06T06:28:51;16.00;90.80
9271;DHT22;4673;53.458;9.940;2023-08-06T06:31:17;16.30;91.40
9271;DHT22;4673;53.458;9.940;2023-08-06T06:33:42;16.40;90.60
9271;DHT22;4673;53.458;9.940;2023-08-06T06:36:08;16.60;90.10
9271;DHT22;4673;53.458;9.940;2023-08-06T06:38:34;16.90;89.90
9271;DHT22;4673;53.458;9.940;2023-08-06T06:41:00;17.00;88.40
9271;DHT22;4673;53.458;9.940;2023-08-06T06:43:25;17.10;86.70
9271;DHT22;4673;53.458;9.940;2023-08-06T06:45:58;17.30;86.30
9271;DHT22;4673;53.458;9.940;2023-08-06T06:48:31;17.50;84.70
9271;DHT22;4673;53.458;9.940;2023-08-06T06:50:56;17.70;84.40
9271;DHT22;4673;53.458;9.940;2023-08-06T06:53:23;17.90;82.90
9271;DHT22;4673;53.458;9.940;2023-08-06T06:56:02;18.20;81.20
9271;DHT22;4673;53.458;9.940;2023-08-06T06:58:28;18.30;79.80
9271;DHT22;4673;53.458;9.940;2023-08-06T07:00:53;18.50;78.40
9271;DHT22;4673;53.458;9.940;2023-08-06T07:03:22;18.70;76.90
9271;DHT22;4673;53.458;9.940;2023-08-06T07:05:49;18.80;76.40
9271;DHT22;4673;53.458;9.940;2023-08-06T07:08:14;18.90;75.40
9271;DHT22;4673;53.458;9.940;2023-08-06T07:10:43;19.00;72.90
9271;DHT22;4673;53.458;9.940;2023-08-06T07:13:09;19.10;72.80
9271;DHT22;4673;53.458;9.940;2023-08-06T07:15:35;19.10;72.10
9271;DHT22;4673;53.458;9.940;2023-08-06T07:18:01;19.30;70.80
9271;DHT22;4673;53.458;9.940;2023-08-06T07:20:26;19.30;69.20
9271;DHT22;4673;53.458;9.940;2023-08-06T07:22:57;19.40;68.40
9271;DHT22;4673;53.458;9.940;2023-08-06T07:25:22;19.60;68.10
9271;DHT22;4673;53.458;9.940;2023-08-06T07:27:48;19.80;67.60
9271;DHT22;4673;53.458;9.940;2023-08-06T07:30:13;19.90;65.40
9271;DHT22;4673;53.458;9.940;2023-08-06T07:32:39;19.90;63.80
9271;DHT22;4673;53.458;9.940;2023-08-06T07:35:05;19.90;63.60
9271;DHT22;4673;53.458;9.940;2023-08-06T07:37:31;20.00;63.50
9271;DHT22;4673;53.458;9.940;2023-08-06T07:39:57;20.10;63.10
9271;DHT22;4673;53.458;9.940;2023-08-06T07:42:22;20.20;61.90
9271;DHT22;4673;53.458;9.940;2023-08-06T07:44:53;20.20;60.80
9271;DHT22;4673;53.458;9.940;2023-08-06T07:47:21;20.20;60.40
9271;DHT22;4673;53.458;9.940;2023-08-06T07:49:47;20.30;60.00
9271;DHT22;4673;53.458;9.940;2023-08-06T07:52:12;20.30;59.70
9271;DHT22;4673;53.458;9.940;2023-08-06T07:54:38;20.40;59.50
9271;DHT22;4673;53.458;9.940;2023-08-06T07:57:04;20.50;59.00
9271;DHT22;4673;53.458;9.940;2023-08-06T07:59:30;20.40;58.10
9271;DHT22;4673;53.458;9.940;2023-08-06T08:01:56;20.40;58.80
9271;DHT22;4673;53.458;9.940;2023-08-06T08:04:22;20.30;58.50
9271;DHT22;4673;53.458;9.940;2023-08-06T08:06:47;20.30;58.50
9271;DHT22;4673;53.458;9.940;2023-08-06T08:09:13;20.30;58.50
9271;DHT22;4673;53.458;9.940;2023-08-06T08:11:40;20.30;58.10
9271;DHT22;4673;53.458;9.940;2023-08-06T08:14:06;20.40;57.80
9271;DHT22;4673;53.458;9.940;2023-08-06T08:16:31;20.50;57.70
9271;DHT22;4673;53.458;9.940;2023-08-06T08:18:57;20.60;56.10
9271;DHT22;4673;53.458;9.940;2023-08-06T08:21:23;20.40;55.90
9271;DHT22;4673;53.458;9.940;2023-08-06T08:23:52;20.40;55.90
9271;DHT22;4673;53.458;9.940;2023-08-06T08:26:18;20.00;54.90
9271;DHT22;4673;53.458;9.940;2023-08-06T08:28:44;19.50;58.70
9271;DHT22;4673;53.458;9.940;2023-08-06T08:31:10;19.70;60.00
9271;DHT22;4673;53.458;9.940;2023-08-06T08:33:39;19.30;59.70
9271;DHT22;4673;53.458;9.940;2023-08-06T08:36:05;19.30;62.30
9271;DHT22;4673;53.458;9.940;2023-08-06T08:38:30;19.50;62.80
9271;DHT22;4673;53.458;9.940;2023-08-06T08:40:56;19.80;62.40
9271;DHT22;4673;53.458;9.940;2023-08-06T08:43:23;20.10;59.80
9271;DHT22;4673;53.458;9.940;2023-08-06T08:45:52;19.60;59.00
9271;DHT22;4673;53.458;9.940;2023-08-06T08:48:21;19.70;60.80
9271;DHT22;4673;53.458;9.940;2023-08-06T08:50:49;19.90;60.60
9271;DHT22;4673;53.458;9.940;2023-08-06T08:53:16;20.00;58.90
9271;DHT22;4673;53.458;9.940;2023-08-06T08:55:43;20.10;59.00
9271;DHT22;4673;53.458;9.940;2023-08-06T08:58:10;20.20;56.70
9271;DHT22;4673;53.458;9.940;2023-08-06T09:00:36;19.90;59.30
9271;DHT22;4673;53.458;9.940;2023-08-06T09:03:02;19.90;58.40
9271;DHT22;4673;53.458;9.940;2023-08-06T09:05:32;19.40;59.50
9271;DHT22;4673;53.458;9.940;2023-08-06T09:08:05;19.30;60.90
9271;DHT22;4673;53.458;9.940;2023-08-06T09:10:31;19.60;61.40
9271;DHT22;4673;53.458;9.940;2023-08-06T09:12:57;19.70;60.20
9271;DHT22;4673;53.458;9.940;2023-08-06T09:15:27;19.90;60.30
9271;DHT22;4673;53.458;9.940;2023-08-06T09:17:53;20.00;60.40
9271;DHT22;4673;53.458;9.940;2023-08-06T09:20:19;19.80;58.00
9271;DHT22;4673;53.458;9.940;2023-08-06T09:22:45;19.60;57.80
9271;DHT22;4673;53.458;9.940;2023-08-06T09:25:21;19.50;59.80
9271;DHT22;4673;53.458;9.940;2023-08-06T09:27:47;19.60;59.70
9271;DHT22;4673;53.458;9.940;2023-08-06T09:30:29;19.60;57.80
9271;DHT22;4673;53.458;9.940;2023-08-06T09:32:56;19.40;57.80
9271;DHT22;4673;53.458;9.940;2023-08-06T09:35:22;19.70;59.10
9271;DHT22;4673;53.458;9.940;2023-08-06T09:37:48;19.90;57.80
9271;DHT22;4673;53.458;9.940;2023-08-06T09:42:53;19.90;56.40
9271;DHT22;4673;53.458;9.940;2023-08-06T09:45:19;19.70;57.40
9271;DHT22;4673;53.458;9.940;2023-08-06T09:47:44;19.70;58.40
9271;DHT22;4673;53.458;9.940;2023-08-06T09:50:20;20.00;59.30
9271;DHT22;4673;53.458;9.940;2023-08-06T09:52:50;20.30;59.40
9271;DHT22;4673;53.458;9.940;2023-08-06T09:55:18;20.10;56.60
9271;DHT22;4673;53.458;9.940;2023-08-06T09:57:44;19.90;56.90
9271;DHT22;4673;53.458;9.940;2023-08-06T10:00:11;19.80;58.10
9271;DHT22;4673;53.458;9.940;2023-08-06T10:02:40;19.80;58.00
9271;DHT22;4673;53.458;9.940;2023-08-06T10:05:07;20.00;57.50
9271;DHT22;4673;53.458;9.940;2023-08-06T10:07:35;20.00;57.70
9271;DHT22;4673;53.458;9.940;2023-08-06T10:10:02;20.30;57.20
9271;DHT22;4673;53.458;9.940;2023-08-06T10:12:34;20.50;56.50
9271;DHT22;4673;53.458;9.940;2023-08-06T10:15:04;20.40;54.80
9271;DHT22;4673;53.458;9.940;2023-08-06T10:17:33;20.20;55.30
9271;DHT22;4673;53.458;9.940;2023-08-06T10:20:00;20.00;56.10
9271;DHT22;4673;53.458;9.940;2023-08-06T10:22:26;19.90;57.40
9271;DHT22;4673;53.458;9.940;2023-08-06T10:24:57;20.00;56.70
9271;DHT22;4673;53.458;9.940;2023-08-06T10:27:35;20.00;57.10
9271;DHT22;4673;53.458;9.940;2023-08-06T10:30:23;19.90;57.10
9271;DHT22;4673;53.458;9.940;2023-08-06T10:32:51;19.80;58.50
9271;DHT22;4673;53.458;9.940;2023-08-06T10:35:40;19.90;58.30
9271;DHT22;4673;53.458;9.940;2023-08-06T10:38:14;19.90;58.60
9271;DHT22;4673;53.458;9.940;2023-08-06T10:40:41;19.90;58.50
9271;DHT22;4673;53.458;9.940;2023-08-06T10:43:07;19.90;56.70
9271;DHT22;4673;53.458;9.940;2023-08-06T10:45:36;19.50;58.40
9271;DHT22;4673;53.458;9.940;2023-08-06T10:48:02;19.50;59.50
9271;DHT22;4673;53.458;9.940;2023-08-06T10:50:28;19.30;58.70
9271;DHT22;4673;53.458;9.940;2023-08-06T10:52:54;19.30;58.90
9271;DHT22;4673;53.458;9.940;2023-08-06T10:55:24;19.30;59.80
9271;DHT22;4673;53.458;9.940;2023-08-06T10:57:50;18.90;59.90
9271;DHT22;4673;53.458;9.940;2023-08-06T11:00:16;18.90;61.10
9271;DHT22;4673;53.458;9.940;2023-08-06T11:02:42;18.70;60.00
9271;DHT22;4673;53.458;9.940;2023-08-06T11:05:09;18.50;61.10
9271;DHT22;4673;53.458;9.940;2023-08-06T11:07:35;18.70;61.70
9271;DHT22;4673;53.458;9.940;2023-08-06T11:10:12;19.00;61.20
9271;DHT22;4673;53.458;9.940;2023-08-06T11:12:38;19.00;61.40
9271;DHT22;4673;53.458;9.940;2023-08-06T11:15:04;19.00;61.60
9271;DHT22;4673;53.458;9.940;2023-08-06T11:17:31;19.10;61.90
9271;DHT22;4673;53.458;9.940;2023-08-06T11:20:04;19.10;62.10
9271;DHT22;4673;53.458;9.940;2023-08-06T11:22:30;19.20;60.90
9271;DHT22;4673;53.458;9.940;2023-08-06T11:24:56;19.10;61.00
9271;DHT22;4673;53.458;9.940;2023-08-06T11:27:22;19.20;59.70
9271;DHT22;4673;53.458;9.940;2023-08-06T11:29:48;19.00;59.60
9271;DHT22;4673;53.458;9.940;2023-08-06T11:32:14;19.00;60.00
9271;DHT22;4673;53.458;9.940;2023-08-06T11:34:40;18.90;60.80
9271;DHT22;4673;53.458;9.940;2023-08-06T11:37:07;19.10;60.70
9271;DHT22;4673;53.458;9.940;2023-08-06T11:39:36;19.30;61.00
9271;DHT22;4673;53.458;9.940;2023-08-06T11:42:03;19.60;60.40
9271;DHT22;4673;53.458;9.940;2023-08-06T11:44:35;19.60;58.10
9271;DHT22;4673;53.458;9.940;2023-08-06T11:47:03;19.50;58.50
9271;DHT22;4673;53.458;9.940;2023-08-06T11:49:49;19.30;59.70
9271;DHT22;4673;53.458;9.940;2023-08-06T11:52:22;19.60;60.50
9271;DHT22;4673;53.458;9.940;2023-08-06T11:57:38;18.90;60.80
9271;DHT22;4673;53.458;9.940;2023-08-06T12:00:13;18.80;60.90
9271;DHT22;4673;53.458;9.940;2023-08-06T12:02:40;18.90;62.20
9271;DHT22;4673;53.458;9.940;2023-08-06T12:07:45;18.70;62.20
9271;DHT22;4673;53.458;9.940;2023-08-06T12:10:15;18.80;63.10
9271;DHT22;4673;53.458;9.940;2023-08-06T12:12:42;18.70;63.20
9271;DHT22;4673;53.458;9.940;2023-08-06T12:15:09;18.80;61.50
9271;DHT22;4673;53.458;9.940;2023-08-06T12:17:35;18.60;62.90
9271;DHT22;4673;53.458;9.940;2023-08-06T12:20:06;18.60;62.30
9271;DHT22;4673;53.458;9.940;2023-08-06T12:22:32;18.50;62.40
9271;DHT22;4673;53.458;9.940;2023-08-06T12:25:11;18.20;62.90
9271;DHT22;4673;53.458;9.940;2023-08-06T12:27:39;18.40;63.30
9271;DHT22;4673;53.458;9.940;2023-08-06T12:30:06;18.70;62.50
9271;DHT22;4673;53.458;9.940;2023-08-06T12:32:33;18.90;62.80
9271;DHT22;4673;53.458;9.940;2023-08-06T12:34:59;19.20;62.70
9271;DHT22;4673;53.458;9.940;2023-08-06T12:37:26;19.60;61.40
9271;DHT22;4673;53.458;9.940;2023-08-06T12:39:52;19.90;59.40
9271;DHT22;4673;53.458;9.940;2023-08-06T12:42:18;20.10;59.00
9271;DHT22;4673;53.458;9.940;2023-08-06T12:44:44;20.40;58.10
9271;DHT22;4673;53.458;9.940;2023-08-06T12:47:10;20.70;57.00
9271;DHT22;4673;53.458;9.940;2023-08-06T12:49:35;20.90;55.20
9271;DHT22;4673;53.458;9.940;2023-08-06T12:52:02;21.10;54.30
9271;DHT22;4673;53.458;9.940;2023-08-06T12:54:30;21.20;53.30
9271;DHT22;4673;53.458;9.940;2023-08-06T12:57:01;21.30;51.80
9271;DHT22;4673;53.458;9.940;2023-08-06T12:59:27;21.10;52.90
9271;DHT22;4673;53.458;9.940;2023-08-06T13:01:53;21.20;52.50
9271;DHT22;4673;53.458;9.940;2023-08-06T13:04:18;20.80;51.00
9271;DHT22;4673;53.458;9.940;2023-08-06T13:06:44;20.60;52.30
9271;DHT22;4673;53.458;9.940;2023-08-06T13:09:10;20.60;52.10
9271;DHT22;4673;53.458;9.940;2023-08-06T13:11:36;20.60;51.70
9271;DHT22;4673;53.458;9.940;2023-08-06T13:14:13;20.60;51.70
9271;DHT22;4673;53.458;9.940;2023-08-06T13:16:41;20.80;52.20
9271;DHT22;4673;53.458;9.940;2023-08-06T13:19:07;20.80;52.20
9271;DHT22;4673;53.458;9.940;2023-08-06T13:22:03;21.00;51.90
9271;DHT22;4673;53.458;9.940;2023-08-06T13:24:30;21.20;52.20
9271;DHT22;4673;53.458;9.940;2023-08-06T13:26:56;21.30;51.20
9271;DHT22;4673;53.458;9.940;2023-08-06T13:29:22;21.10;49.70
9271;DHT22;4673;53.458;9.940;2023-08-06T13:31:47;20.90;50.60
9271;DHT22;4673;53.458;9.940;2023-08-06T13:34:13;20.60;52.70
9271;DHT22;4673;53.458;9.940;2023-08-06T13:36:39;20.40;52.70
9271;DHT22;4673;53.458;9.940;2023-08-06T13:39:04;20.00;53.80
9271;DHT22;4673;53.458;9.940;2023-08-06T13:41:31;20.00;55.20
9271;DHT22;4673;53.458;9.940;2023-08-06T13:43:57;19.80;55.60
9271;DHT22;4673;53.458;9.940;2023-08-06T13:46:22;19.60;55.80
9271;DHT22;4673;53.458;9.940;2023-08-06T13:48:48;19.60;57.30
9271;DHT22;4673;53.458;9.940;2023-08-06T13:51:20;19.40;57.20
9271;DHT22;4673;53.458;9.940;2023-08-06T13:53:46;19.70;58.10
9271;DHT22;4673;53.458;9.940;2023-08-06T13:56:12;20.10;57.30
9271;DHT22;4673;53.458;9.940;2023-08-06T13:58:38;20.30;54.50
9271;DHT22;4673;53.458;9.940;2023-08-06T14:01:04;20.20;53.90
9271;DHT22;4673;53.458;9.940;2023-08-06T14:03:30;19.90;54.20
9271;DHT22;4673;53.458;9.940;2023-08-06T14:05:55;19.70;55.20
9271;DHT22;4673;53.458;9.940;2023-08-06T14:08:23;19.80;56.00
9271;DHT22;4673;53.458;9.940;2023-08-06T14:10:49;19.70;55.50
9271;DHT22;4673;53.458;9.940;2023-08-06T14:13:15;19.80;56.00
9271;DHT22;4673;53.458;9.940;2023-08-06T14:15:41;19.90;55.70
9271;DHT22;4673;53.458;9.940;2023-08-06T14:18:07;19.80;56.30
9271;DHT22;4673;53.458;9.940;2023-08-06T14:20:35;19.80;55.80
9271;DHT22;4673;53.458;9.940;2023-08-06T14:23:01;19.60;56.30
9271;DHT22;4673;53.458;9.940;2023-08-06T14:25:27;19.40;57.60
9271;DHT22;4673;53.458;9.940;2023-08-06T14:27:52;19.20;58.30
9271;DHT22;4673;53.458;9.940;2023-08-06T14:30:18;19.30;59.80
9271;DHT22;4673;53.458;9.940;2023-08-06T14:32:44;19.40;59.60
9271;DHT22;4673;53.458;9.940;2023-08-06T14:35:09;19.60;59.30
9271;DHT22;4673;53.458;9.940;2023-08-06T14:37:35;19.70;58.50
9271;DHT22;4673;53.458;9.940;2023-08-06T14:40:01;19.60;57.10
9271;DHT22;4673;53.458;9.940;2023-08-06T14:42:26;19.60;57.90
9271;DHT22;4673;53.458;9.940;2023-08-06T14:44:52;19.60;57.80
9271;DHT22;4673;53.458;9.940;2023-08-06T14:47:18;19.60;58.20
9271;DHT22;4673;53.458;9.940;2023-08-06T14:49:43;19.90;58.40
9271;DHT22;4673;53.458;9.940;2023-08-06T14:52:10;20.00;55.90
9271;DHT22;4673;53.458;9.940;2023-08-06T14:54:35;19.90;55.90
9271;DHT22;4673;53.458;9.940;2023-08-06T14:57:01;19.60;57.50
9271;DHT22;4673;53.458;9.940;2023-08-06T14:59:27;19.50;57.90
9271;DHT22;4673;53.458;9.940;2023-08-06T15:01:53;19.20;58.30
9271;DHT22;4673;53.458;9.940;2023-08-06T15:04:18;19.00;59.20
9271;DHT22;4673;53.458;9.940;2023-08-06T15:06:44;18.70;60.60
9271;DHT22;4673;53.458;9.940;2023-08-06T15:09:10;18.50;62.10
9271;DHT22;4673;53.458;9.940;2023-08-06T15:11:36;18.30;63.70
9271;DHT22;4673;53.458;9.940;2023-08-06T15:14:01;18.20;64.10
9271;DHT22;4673;53.458;9.940;2023-08-06T15:16:30;17.80;65.80
9271;DHT22;4673;53.458;9.940;2023-08-06T15:18:56;17.80;66.90
9271;DHT22;4673;53.458;9.940;2023-08-06T15:21:21;17.70;67.40
9271;DHT22;4673;53.458;9.940;2023-08-06T15:23:47;17.70;68.40
9271;DHT22;4673;53.458;9.940;2023-08-06T15:26:12;17.60;69.30
9271;DHT22;4673;53.458;9.940;2023-08-06T15:28:38;17.70;70.60
9271;DHT22;4673;53.458;9.940;2023-08-06T15:31:04;17.70;71.10
9271;DHT22;4673;53.458;9.940;2023-08-06T15:33:31;17.70;71.80
9271;DHT22;4673;53.458;9.940;2023-08-06T15:35:56;17.60;72.80
9271;DHT22;4673;53.458;9.940;2023-08-06T15:38:22;17.50;74.30
9271;DHT22;4673;53.458;9.940;2023-08-06T15:40:48;17.40;75.80
9271;DHT22;4673;53.458;9.940;2023-08-06T15:43:14;17.30;77.80
9271;DHT22;4673;53.458;9.940;2023-08-06T15:45:39;17.40;78.50
9271;DHT22;4673;53.458;9.940;2023-08-06T15:48:05;17.50;79.10
9271;DHT22;4673;53.458;9.940;2023-08-06T15:50:31;17.70;79.80
9271;DHT22;4673;53.458;9.940;2023-08-06T15:52:56;17.80;79.60
9271;DHT22;4673;53.458;9.940;2023-08-06T15:55:22;18.00;79.80
9271;DHT22;4673;53.458;9.940;2023-08-06T15:57:48;18.10;79.00
9271;DHT22;4673;53.458;9.940;2023-08-06T16:00:13;18.10;78.20
9271;DHT22;4673;53.458;9.940;2023-08-06T16:02:39;18.30;79.30
9271;DHT22;4673;53.458;9.940;2023-08-06T16:05:05;18.40;78.10
9271;DHT22;4673;53.458;9.940;2023-08-06T16:07:31;18.50;77.40
9271;DHT22;4673;53.458;9.940;2023-08-06T16:09:57;18.60;76.90
9271;DHT22;4673;53.458;9.940;2023-08-06T16:12:22;18.70;77.20
9271;DHT22;4673;53.458;9.940;2023-08-06T16:14:51;18.70;75.80
9271;DHT22;4673;53.458;9.940;2023-08-06T16:17:17;18.70;73.80
9271;DHT22;4673;53.458;9.940;2023-08-06T16:19:42;18.60;73.50